createdAt,value
2024-02-17T00:00:06.745Z,14.14
2024-02-17T00:02:34.179Z,14.13
2024-02-17T00:05:01.125Z,14.13
2024-02-17T00:07:28.297Z,14.12
2024-02-17T00:09:55.004Z,14.11
2024-02-17T00:12:21.756Z,14.11
2024-02-17T00:14:48.784Z,14.09
2024-02-17T00:17:15.580Z,14.09
2024-02-17T00:19:42.772Z,14.06
2024-02-17T00:22:09.614Z,14.03
2024-02-17T00:24:36.327Z,14.01
2024-02-17T00:27:03.814Z,13.99
2024-02-17T00:29:30.730Z,13.98
2024-02-17T00:31:57.801Z,13.94
2024-02-17T00:34:25.140Z,13.93
2024-02-17T00:36:52.415Z,13.92
2024-02-17T00:39:19.342Z,13.89
2024-02-17T00:41:47.127Z,13.89
2024-02-17T00:44:14.114Z,13.85
2024-02-17T00:46:41.427Z,13.81
2024-02-17T00:49:10.741Z,13.74
2024-02-17T00:51:37.850Z,13.65
2024-02-17T00:54:04.694Z,13.60
2024-02-17T00:56:31.463Z,13.53
2024-02-17T00:58:58.197Z,13.41
2024-02-17T01:01:32.915Z,13.39
2024-02-17T01:04:05.301Z,13.36
2024-02-17T01:06:32.312Z,13.35
2024-02-17T01:08:59.037Z,13.32
2024-02-17T01:11:25.902Z,13.31
2024-02-17T01:13:52.695Z,13.30
2024-02-17T01:16:19.421Z,13.28
2024-02-17T01:18:46.476Z,13.22
2024-02-17T01:21:13.449Z,13.23
2024-02-17T01:23:40.202Z,13.15
2024-02-17T01:26:08.259Z,13.13
2024-02-17T01:28:35.184Z,13.10
2024-02-17T01:31:02.032Z,13.07
2024-02-17T01:33:28.927Z,13.06
2024-02-17T01:35:57.973Z,13.05
2024-02-17T01:38:24.643Z,13.05
2024-02-17T01:40:51.449Z,13.06
2024-02-17T01:43:18.258Z,13.10
2024-02-17T01:45:46.857Z,13.08
2024-02-17T01:48:14.440Z,13.08
2024-02-17T01:50:41.746Z,13.07
2024-02-17T01:53:08.856Z,13.06
2024-02-17T01:55:36.244Z,13.07
2024-02-17T01:58:03.140Z,13.08
2024-02-17T02:00:30.464Z,13.06
2024-02-17T02:02:57.552Z,13.01
2024-02-17T02:05:24.645Z,12.98
2024-02-17T02:07:51.360Z,13.00
2024-02-17T02:10:18.206Z,12.99
2024-02-17T02:12:45.960Z,12.99
2024-02-17T02:15:14.298Z,12.94
2024-02-17T02:17:42.441Z,12.89
2024-02-17T02:20:13.195Z,12.80
2024-02-17T02:22:40.277Z,12.75
2024-02-17T02:25:10.444Z,12.69
2024-02-17T02:27:43.591Z,12.67
2024-02-17T02:30:10.986Z,12.64
2024-02-17T02:32:37.799Z,12.62
2024-02-17T02:35:05.552Z,12.63
2024-02-17T02:37:32.400Z,12.59
2024-02-17T02:39:59.098Z,12.44
2024-02-17T02:42:25.953Z,12.31
2024-02-17T02:44:53.195Z,12.16
2024-02-17T02:47:19.973Z,12.06
2024-02-17T02:49:46.997Z,11.98
2024-02-17T02:52:15.205Z,11.93
2024-02-17T02:54:42.134Z,11.86
2024-02-17T02:57:09.584Z,11.79
2024-02-17T02:59:36.509Z,11.71
2024-02-17T03:02:05.936Z,11.65
2024-02-17T03:04:32.807Z,11.61
2024-02-17T03:06:59.870Z,11.58
2024-02-17T03:09:26.848Z,11.54
2024-02-17T03:11:53.680Z,11.48
2024-02-17T03:14:22.716Z,11.45
2024-02-17T03:16:49.460Z,11.42
2024-02-17T03:19:17.038Z,11.41
2024-02-17T03:21:43.923Z,11.33
2024-02-17T03:24:11.687Z,11.35
2024-02-17T03:26:38.745Z,11.35
2024-02-17T03:29:05.510Z,11.33
2024-02-17T03:31:32.357Z,11.33
2024-02-17T03:34:06.835Z,11.32
2024-02-17T03:36:34.422Z,11.28
2024-02-17T03:39:01.251Z,11.34
2024-02-17T03:41:29.470Z,11.35
2024-02-17T03:43:56.467Z,11.36
2024-02-17T03:46:23.166Z,11.36
2024-02-17T03:48:51.473Z,11.35
2024-02-17T03:51:18.454Z,11.32
2024-02-17T03:53:45.189Z,11.29
2024-02-17T03:56:15.436Z,11.27
2024-02-17T03:58:42.185Z,11.25
2024-02-17T04:01:09.073Z,11.25
2024-02-17T04:03:35.966Z,11.24
2024-02-17T04:06:03.870Z,11.22
2024-02-17T04:08:30.634Z,11.17
2024-02-17T04:10:59.519Z,11.16
2024-02-17T04:13:26.581Z,11.12
2024-02-17T04:15:53.411Z,11.08
2024-02-17T04:18:20.304Z,11.04
2024-02-17T04:20:48.728Z,11.02
2024-02-17T04:23:15.493Z,10.99
2024-02-17T04:25:43.157Z,10.93
2024-02-17T04:28:09.815Z,10.90
2024-02-17T04:30:36.832Z,10.87
2024-02-17T04:33:04.923Z,10.84
2024-02-17T04:35:31.847Z,10.82
2024-02-17T04:37:58.623Z,10.83
2024-02-17T04:40:25.418Z,10.78
2024-02-17T04:42:53.719Z,10.73
2024-02-17T04:45:20.627Z,10.70
2024-02-17T04:47:47.743Z,10.67
2024-02-17T04:50:14.646Z,10.65
2024-02-17T04:52:42.554Z,10.65
2024-02-17T04:55:10.346Z,10.65
2024-02-17T04:57:37.322Z,10.66
2024-02-17T05:00:07.270Z,10.65
2024-02-17T05:02:37.649Z,10.63
2024-02-17T05:05:04.872Z,10.59
2024-02-17T05:07:31.800Z,10.54
2024-02-17T05:09:58.648Z,10.50
2024-02-17T05:12:25.723Z,10.47
2024-02-17T05:14:52.776Z,10.44
2024-02-17T05:17:19.591Z,10.40
2024-02-17T05:19:47.731Z,10.41
2024-02-17T05:22:14.831Z,10.39
2024-02-17T05:24:44.927Z,10.41
2024-02-17T05:27:12.293Z,10.39
2024-02-17T05:29:40.022Z,10.38
2024-02-17T05:32:08.248Z,10.31
2024-02-17T05:34:35.755Z,10.26
2024-02-17T05:37:05.136Z,10.24
2024-02-17T05:39:33.009Z,10.20
2024-02-17T05:42:00.499Z,10.23
2024-02-17T05:44:27.922Z,10.21
2024-02-17T05:46:54.643Z,10.24
2024-02-17T05:49:23.368Z,10.22
2024-02-17T05:51:50.684Z,10.20
2024-02-17T05:54:19.085Z,10.20
2024-02-17T05:56:46.763Z,10.12
2024-02-17T05:59:15.101Z,10.15
2024-02-17T06:01:42.920Z,10.16
2024-02-17T06:04:10.002Z,10.11
2024-02-17T06:06:36.919Z,10.12
2024-02-17T06:09:03.763Z,10.15
2024-02-17T06:11:30.565Z,10.13
2024-02-17T06:13:58.244Z,10.11
2024-02-17T06:16:28.557Z,10.07
2024-02-17T06:19:14.212Z,10.05
2024-02-17T06:21:41.121Z,9.92
2024-02-17T06:24:07.866Z,9.83
2024-02-17T06:26:36.921Z,9.80
2024-02-17T06:29:07.505Z,9.76
2024-02-17T06:31:39.696Z,9.78
2024-02-17T06:34:07.607Z,9.78
2024-02-17T06:36:35.116Z,9.82
2024-02-17T06:39:01.811Z,9.85
2024-02-17T06:41:28.671Z,9.86
2024-02-17T06:43:55.433Z,9.85
2024-02-17T06:46:22.551Z,9.88
2024-02-17T06:48:52.058Z,9.88
2024-02-17T06:51:21.113Z,9.89
2024-02-17T06:53:48.220Z,9.89
2024-02-17T06:56:15.392Z,9.90
2024-02-17T06:58:42.799Z,9.80
2024-02-17T07:01:10.863Z,9.77
2024-02-17T07:03:38.080Z,9.72
2024-02-17T07:06:06.153Z,9.72
2024-02-17T07:08:33.189Z,9.70
2024-02-17T07:11:00.707Z,9.66
2024-02-17T07:13:27.699Z,9.65
2024-02-17T07:15:54.467Z,9.60
2024-02-17T07:18:21.374Z,9.56
2024-02-17T07:20:52.152Z,9.56
2024-02-17T07:23:21.944Z,9.59
2024-02-17T07:25:49.118Z,9.59
2024-02-17T07:28:18.135Z,9.55
2024-02-17T07:30:46.022Z,9.53
2024-02-17T07:33:13.643Z,9.52
2024-02-17T07:35:43.979Z,9.48
2024-02-17T07:38:12.279Z,9.46
2024-02-17T07:40:39.972Z,9.46
2024-02-17T07:43:07.158Z,9.41
2024-02-17T07:45:34.491Z,9.42
2024-02-17T07:48:01.501Z,9.41
2024-02-17T07:50:28.638Z,9.47
2024-02-17T07:52:55.558Z,9.51
2024-02-17T07:55:23.043Z,9.54
2024-02-17T07:57:50.396Z,9.56
2024-02-17T08:00:18.700Z,9.57
2024-02-17T08:02:47.531Z,9.54
2024-02-17T08:05:16.009Z,9.50
2024-02-17T08:07:46.344Z,9.49
2024-02-17T08:10:13.364Z,9.49
2024-02-17T08:12:40.264Z,9.50
2024-02-17T08:15:08.476Z,9.53
2024-02-17T08:17:36.281Z,9.56
2024-02-17T08:20:05.440Z,9.56
2024-02-17T08:22:33.217Z,9.59
2024-02-17T08:24:59.952Z,9.64
2024-02-17T08:27:26.738Z,9.67
2024-02-17T08:29:53.584Z,9.70
2024-02-17T08:32:20.342Z,9.70
2024-02-17T08:34:48.124Z,9.64
2024-02-17T08:37:15.098Z,9.59
2024-02-17T08:39:41.853Z,9.56
2024-02-17T08:42:08.747Z,9.55
2024-02-17T08:44:35.572Z,9.53
2024-02-17T08:47:02.231Z,9.49
2024-02-17T08:49:28.968Z,9.46
2024-02-17T08:51:55.831Z,9.40
2024-02-17T08:54:26.764Z,9.37
2024-02-17T08:56:55.071Z,9.31
2024-02-17T08:59:22.165Z,9.28
2024-02-17T09:01:49.086Z,9.31
2024-02-17T09:04:15.969Z,9.31
2024-02-17T09:06:42.946Z,9.31
2024-02-17T09:09:13.036Z,9.34
2024-02-17T09:11:39.881Z,9.35
2024-02-17T09:14:06.670Z,9.34
2024-02-17T09:16:33.312Z,9.32
2024-02-17T09:19:00.101Z,9.24
2024-02-17T09:21:26.860Z,9.25
2024-02-17T09:23:53.616Z,9.22
2024-02-17T09:26:20.337Z,9.23
2024-02-17T09:28:47.184Z,9.22
2024-02-17T09:31:13.841Z,9.22
2024-02-17T09:33:40.806Z,9.21
2024-02-17T09:36:09.165Z,9.19
2024-02-17T09:38:36.055Z,9.16
2024-02-17T09:41:02.755Z,9.12
2024-02-17T09:43:29.634Z,9.14
2024-02-17T09:45:57.461Z,9.14
2024-02-17T09:48:26.432Z,9.15
2024-02-17T09:50:55.384Z,9.17
2024-02-17T09:53:23.569Z,9.16
2024-02-17T09:55:50.484Z,9.16
2024-02-17T09:58:17.301Z,9.15
2024-02-17T10:00:44.096Z,9.21
2024-02-17T10:03:11.635Z,9.24
2024-02-17T10:05:38.755Z,9.26
2024-02-17T10:08:06.424Z,9.25
2024-02-17T10:10:33.153Z,9.21
2024-02-17T10:13:00.372Z,9.22
2024-02-17T10:15:27.901Z,9.22
2024-02-17T10:17:56.724Z,9.19
2024-02-17T10:20:23.745Z,9.20
2024-02-17T10:22:51.218Z,9.21
2024-02-17T10:25:20.127Z,9.23
2024-02-17T10:27:48.577Z,9.24
2024-02-17T10:30:19.060Z,9.26
2024-02-17T10:32:46.094Z,9.25
2024-02-17T10:35:14.504Z,9.26
2024-02-17T10:37:41.670Z,9.26
2024-02-17T10:40:14.424Z,9.27
2024-02-17T10:42:41.797Z,9.26
2024-02-17T10:45:09.187Z,9.25
2024-02-17T10:47:39.309Z,9.26
2024-02-17T10:50:17.136Z,9.29
2024-02-17T10:52:53.495Z,9.31
2024-02-17T10:55:28.510Z,9.34
2024-02-17T10:57:55.456Z,9.35
2024-02-17T11:00:23.688Z,9.37
2024-02-17T11:02:56.690Z,9.39
2024-02-17T11:05:24.311Z,9.40
2024-02-17T11:07:52.579Z,9.38
2024-02-17T11:10:29.431Z,9.39
2024-02-17T11:13:01.424Z,9.41
2024-02-17T11:15:31.347Z,9.41
2024-02-17T11:18:01.192Z,9.41
2024-02-17T11:20:28.908Z,9.45
2024-02-17T11:23:01.420Z,9.49
2024-02-17T11:25:42.673Z,9.50
2024-02-17T11:28:23.507Z,9.59
2024-02-17T11:31:01.410Z,9.66
2024-02-17T11:33:34.259Z,9.71
2024-02-17T11:36:06.123Z,9.70
2024-02-17T11:38:33.126Z,9.69
2024-02-17T11:41:04.078Z,9.69
2024-02-17T11:43:33.337Z,9.72
2024-02-17T11:46:01.125Z,9.75
2024-02-17T11:48:33.082Z,9.73
2024-02-17T11:51:28.822Z,9.75
2024-02-17T11:53:57.258Z,9.75
2024-02-17T11:56:25.837Z,9.74
2024-02-17T11:58:55.029Z,9.75
2024-02-17T12:01:22.038Z,9.77
2024-02-17T12:03:49.540Z,9.75
2024-02-17T12:06:17.041Z,9.79
2024-02-17T12:08:43.930Z,9.77
2024-02-17T12:11:11.407Z,9.80
2024-02-17T12:13:38.449Z,9.79
2024-02-17T12:16:07.162Z,9.76
2024-02-17T12:18:37.647Z,9.74
2024-02-17T12:21:08.337Z,9.71
2024-02-17T12:23:49.368Z,9.69
2024-02-17T12:26:24.734Z,9.68
2024-02-17T12:29:05.082Z,9.70
2024-02-17T12:31:32.846Z,9.68
2024-02-17T12:34:00.078Z,9.71
2024-02-17T12:36:30.744Z,9.73
2024-02-17T12:39:00.198Z,9.72
2024-02-17T12:41:27.791Z,9.70
2024-02-17T12:43:56.557Z,9.74
2024-02-17T12:46:27.774Z,9.77
2024-02-17T12:48:55.415Z,9.74
2024-02-17T12:51:24.726Z,9.74
2024-02-17T12:53:52.462Z,9.72
2024-02-17T12:56:24.693Z,9.71
2024-02-17T12:58:53.148Z,9.71
2024-02-17T13:01:20.555Z,9.73
2024-02-17T13:03:47.907Z,9.74
2024-02-17T13:06:16.292Z,9.74
2024-02-17T13:08:47.912Z,9.74
2024-02-17T13:11:15.943Z,9.71
2024-02-17T13:13:42.623Z,9.71
2024-02-17T13:16:09.404Z,9.71
2024-02-17T13:18:36.390Z,9.71
2024-02-17T13:21:04.295Z,9.66
2024-02-17T13:23:31.042Z,9.63
2024-02-17T13:25:57.756Z,9.59
2024-02-17T13:28:24.515Z,9.53
2024-02-17T13:30:51.280Z,9.48
2024-02-17T13:33:18.673Z,9.43
2024-02-17T13:35:45.545Z,9.39
2024-02-17T13:38:22.049Z,9.30
2024-02-17T13:40:56.278Z,9.29
2024-02-17T13:43:23.117Z,9.23
2024-02-17T13:45:50.155Z,9.17
2024-02-17T13:48:17.310Z,9.18
2024-02-17T13:50:44.324Z,9.13
2024-02-17T13:53:11.057Z,9.08
2024-02-17T13:55:39.397Z,9.04
2024-02-17T13:58:07.853Z,9.03
2024-02-17T14:00:34.837Z,9.00
2024-02-17T14:03:02.769Z,8.98
2024-02-17T14:05:29.692Z,8.98
2024-02-17T14:07:57.819Z,8.96
2024-02-17T14:10:24.866Z,8.90
2024-02-17T14:12:52.145Z,8.82
2024-02-17T14:15:20.534Z,8.78
2024-02-17T14:17:48.066Z,8.73
2024-02-17T14:20:15.095Z,8.73
2024-02-17T14:22:41.891Z,8.68
2024-02-17T14:25:08.947Z,8.64
2024-02-17T14:27:37.585Z,8.55
2024-02-17T14:30:08.371Z,8.53
2024-02-17T14:32:35.213Z,8.56
2024-02-17T14:35:03.017Z,8.55
2024-02-17T14:37:31.158Z,8.53
2024-02-17T14:40:00.695Z,8.53
2024-02-17T14:42:27.664Z,8.58
2024-02-17T14:44:54.450Z,8.57
2024-02-17T14:47:21.306Z,8.58
2024-02-17T14:49:49.285Z,8.57
2024-02-17T14:52:18.430Z,8.59
2024-02-17T14:54:45.793Z,8.59
2024-02-17T14:57:16.460Z,8.57
2024-02-17T14:59:43.188Z,8.55
2024-02-17T15:02:10.237Z,8.53
2024-02-17T15:04:37.003Z,8.52
2024-02-17T15:07:04.069Z,8.51
2024-02-17T15:09:31.846Z,8.53
2024-02-17T15:11:59.958Z,8.54
2024-02-17T15:14:29.297Z,8.52
2024-02-17T15:17:01.488Z,8.54
2024-02-17T15:19:28.333Z,8.54
2024-02-17T15:21:55.354Z,8.52
2024-02-17T15:24:22.160Z,8.56
2024-02-17T15:26:48.873Z,8.54
2024-02-17T15:29:15.618Z,8.53
2024-02-17T15:31:42.367Z,8.50
2024-02-17T15:34:09.141Z,8.52
2024-02-17T15:36:37.535Z,8.52
2024-02-17T15:39:07.285Z,8.54
2024-02-17T15:41:36.523Z,8.53
2024-02-17T15:44:06.602Z,8.49
2024-02-17T15:46:33.918Z,8.49
2024-02-17T15:49:00.761Z,8.47
2024-02-17T15:51:27.558Z,8.45
2024-02-17T15:53:54.253Z,8.44
2024-02-17T15:56:21.049Z,8.40
2024-02-17T15:58:47.714Z,8.36
2024-02-17T16:01:14.804Z,8.34
2024-02-17T16:03:41.921Z,8.34
2024-02-17T16:06:11.795Z,8.34
2024-02-17T16:08:42.830Z,8.38
2024-02-17T16:11:11.843Z,8.39
2024-02-17T16:13:45.324Z,8.38
2024-02-17T16:16:16.448Z,8.37
2024-02-17T16:18:46.881Z,8.34
2024-02-17T16:21:15.676Z,8.32
2024-02-17T16:23:42.442Z,8.33
2024-02-17T16:26:09.871Z,8.29
2024-02-17T16:28:36.615Z,8.30
2024-02-17T16:31:04.663Z,8.27
2024-02-17T16:33:36.105Z,8.29
2024-02-17T16:36:07.132Z,8.27
2024-02-17T16:38:34.112Z,8.26
2024-02-17T16:41:03.475Z,8.23
2024-02-17T16:43:33.096Z,8.22
2024-02-17T16:46:01.654Z,8.22
2024-02-17T16:48:29.258Z,8.16
2024-02-17T16:50:56.874Z,8.19
2024-02-17T16:53:23.702Z,8.18
2024-02-17T16:55:50.407Z,8.18
2024-02-17T16:58:17.158Z,8.17
2024-02-17T17:00:44.093Z,8.19
2024-02-17T17:03:11.531Z,8.17
2024-02-17T17:05:38.349Z,8.18
2024-02-17T17:08:07.454Z,8.15
2024-02-17T17:10:34.174Z,8.16
2024-02-17T17:13:01.171Z,8.18
2024-02-17T17:15:27.960Z,8.19
2024-02-17T17:17:54.824Z,8.21
2024-02-17T17:20:24.578Z,8.19
2024-02-17T17:22:51.401Z,8.18
2024-02-17T17:25:18.125Z,8.16
2024-02-17T17:27:44.970Z,8.16
2024-02-17T17:30:15.863Z,8.16
2024-02-17T17:32:42.798Z,8.18
2024-02-17T17:35:14.652Z,8.19
2024-02-17T17:37:42.005Z,8.19
2024-02-17T17:40:12.235Z,8.18
2024-02-17T17:45:54.533Z,8.13
2024-02-17T17:48:21.505Z,8.15
2024-02-17T17:50:49.654Z,8.18
2024-02-17T17:53:24.645Z,8.17
2024-02-17T17:55:51.563Z,8.17
2024-02-17T17:58:21.085Z,8.13
2024-02-17T18:00:48.568Z,8.10
2024-02-17T18:03:15.614Z,8.09
2024-02-17T18:05:42.479Z,8.06
2024-02-17T18:08:10.506Z,8.03
2024-02-17T18:10:37.239Z,8.01
2024-02-17T18:13:06.535Z,7.99
2024-02-17T18:15:33.268Z,7.97
2024-02-17T18:18:00.608Z,7.91
2024-02-17T18:20:29.382Z,7.91
2024-02-17T18:22:56.056Z,7.91
2024-02-17T18:25:22.782Z,7.93
2024-02-17T18:27:49.918Z,7.95
2024-02-17T18:30:16.748Z,7.95
2024-02-17T18:32:47.305Z,7.95
2024-02-17T18:35:14.102Z,7.98
2024-02-17T18:37:43.795Z,7.96
2024-02-17T18:40:11.143Z,7.96
2024-02-17T18:42:38.411Z,7.98
2024-02-17T18:45:05.649Z,8.01
2024-02-17T18:47:32.569Z,8.04
2024-02-17T18:50:02.515Z,8.00
2024-02-17T18:52:30.284Z,7.99
2024-02-17T18:54:57.797Z,7.96
2024-02-17T18:57:24.572Z,7.91
2024-02-17T18:59:51.366Z,7.91
2024-02-17T19:02:18.381Z,7.91
2024-02-17T19:04:56.463Z,7.88
2024-02-17T19:07:23.245Z,7.89
2024-02-17T19:09:49.983Z,7.86
2024-02-17T19:12:16.822Z,7.83
2024-02-17T19:14:49.055Z,7.82
2024-02-17T19:17:18.667Z,7.84
2024-02-17T19:19:47.879Z,7.82
2024-02-17T19:22:17.444Z,7.79
2024-02-17T19:24:44.381Z,7.77
2024-02-17T19:27:13.999Z,7.75
2024-02-17T19:29:44.222Z,7.72
2024-02-17T19:32:10.955Z,7.70
2024-02-17T19:34:37.870Z,7.69
2024-02-17T19:37:05.050Z,7.69
2024-02-17T19:39:34.367Z,7.64
2024-02-17T19:42:10.095Z,7.64
2024-02-17T19:44:39.168Z,7.63
2024-02-17T19:47:06.263Z,7.60
2024-02-17T19:49:35.236Z,7.55
2024-02-17T19:52:06.776Z,7.57
2024-02-17T19:54:33.944Z,7.54
2024-02-17T19:57:29.415Z,7.49
2024-02-17T19:59:56.119Z,7.47
2024-02-17T20:02:23.894Z,7.45
2024-02-17T20:04:51.041Z,7.43
2024-02-17T20:07:24.691Z,7.40
2024-02-17T20:09:56.660Z,7.39
2024-02-17T20:12:26.712Z,7.38
2024-02-17T20:15:01.565Z,7.41
2024-02-17T20:17:36.086Z,7.28
2024-02-17T20:20:10.450Z,7.32
2024-02-17T20:22:39.117Z,7.30
2024-02-17T20:25:06.439Z,7.28
2024-02-17T20:27:33.562Z,7.22
2024-02-17T20:30:00.462Z,7.17
2024-02-17T20:32:34.780Z,7.17
2024-02-17T20:35:18.508Z,7.13
2024-02-17T20:38:50.902Z,7.13
2024-02-17T20:41:26.777Z,7.05
2024-02-17T20:43:53.590Z,7.04
2024-02-17T20:46:20.303Z,7.00
2024-02-17T20:48:47.156Z,7.02
2024-02-17T20:51:16.837Z,7.01
2024-02-17T20:53:43.754Z,7.02
2024-02-17T20:56:13.351Z,7.00
2024-02-17T20:58:40.391Z,7.02
2024-02-17T21:01:08.678Z,7.01
2024-02-17T21:03:35.734Z,6.97
2024-02-17T21:06:04.501Z,6.94
2024-02-17T21:08:31.430Z,6.91
2024-02-17T21:10:58.503Z,6.91
2024-02-17T21:13:25.419Z,6.90
2024-02-17T21:15:52.435Z,6.91
2024-02-17T21:18:19.659Z,6.85
2024-02-17T21:20:46.367Z,6.82
2024-02-17T21:23:13.301Z,6.79
2024-02-17T21:25:43.061Z,6.79
2024-02-17T21:28:13.297Z,6.78
2024-02-17T21:30:40.129Z,6.73
2024-02-17T21:33:07.030Z,6.68
2024-02-17T21:35:33.865Z,6.66
2024-02-17T21:38:01.537Z,6.66
2024-02-17T21:40:28.342Z,6.67
2024-02-17T21:42:55.589Z,6.65
2024-02-17T21:45:24.930Z,6.65
2024-02-17T21:47:51.825Z,6.65
2024-02-17T21:50:18.810Z,6.64
2024-02-17T21:52:45.566Z,6.60
2024-02-17T21:55:15.785Z,6.57
2024-02-17T21:57:43.125Z,6.55
2024-02-17T22:00:10.710Z,6.53
2024-02-17T22:02:37.459Z,6.51
2024-02-17T22:05:04.452Z,6.47
2024-02-17T22:07:32.045Z,6.46
2024-02-17T22:09:58.914Z,6.44
2024-02-17T22:12:27.401Z,6.40
2024-02-17T22:14:54.235Z,6.37
2024-02-17T22:17:20.978Z,6.37
2024-02-17T22:19:50.687Z,6.36
2024-02-17T22:22:18.369Z,6.32
2024-02-17T22:24:45.063Z,6.29
2024-02-17T22:27:11.772Z,6.32
2024-02-17T22:29:38.833Z,6.34
2024-02-17T22:32:05.865Z,6.36
2024-02-17T22:34:32.852Z,6.37
2024-02-17T22:36:59.847Z,6.36
2024-02-17T22:39:26.649Z,6.39
2024-02-17T22:41:55.041Z,6.37
2024-02-17T22:44:21.924Z,6.36
2024-02-17T22:46:48.820Z,6.37
2024-02-17T22:49:15.592Z,6.34
2024-02-17T22:51:43.650Z,6.35
2024-02-17T22:54:10.943Z,6.37
2024-02-17T22:56:37.772Z,6.36
2024-02-17T22:59:04.535Z,6.38
2024-02-17T23:01:31.389Z,6.36
2024-02-17T23:03:58.259Z,6.34
2024-02-17T23:06:25.194Z,6.32
2024-02-17T23:08:52.086Z,6.25
2024-02-17T23:11:18.947Z,6.23
2024-02-17T23:13:45.638Z,6.21
2024-02-17T23:16:12.351Z,6.23
2024-02-17T23:18:39.272Z,6.20
2024-02-17T23:21:06.221Z,6.16
2024-02-17T23:23:33.159Z,6.17
2024-02-17T23:25:59.875Z,6.12
2024-02-17T23:28:28.100Z,6.13
2024-02-17T23:30:54.839Z,6.11
2024-02-17T23:33:21.660Z,6.12
2024-02-17T23:35:48.766Z,6.11
2024-02-17T23:38:17.064Z,6.07
2024-02-17T23:40:43.756Z,6.03
2024-02-17T23:43:10.583Z,6.00
2024-02-17T23:45:37.422Z,5.97
2024-02-17T23:48:07.106Z,5.96
2024-02-17T23:50:34.575Z,5.89
2024-02-17T23:53:01.284Z,5.90
2024-02-17T23:55:27.948Z,5.90
2024-02-17T23:57:54.833Z,5.90
